Terminal Aerodrome Forecast
Issued by NWS

Home | Current Version | Previous Version | Text Only | Print | Product List | Glossary Off
Versions: 1 2 3 4 5 6 7 8 9 10 11 12 13 14 15 16 17 18 19 20 21 22

839
FTUS43 KICT 250234 AAA
TAFCNU
TAF AMD
KCNU 250234Z 2503/2524 15010KT P6SM SCT050 OVC250
     FM250330 11005KT P6SM VCTS OVC040CB
      TEMPO 2504/2507 VRB25G35KT 5SM TSRA SCT015 OVC025CB
     FM250700 34012KT P6SM VCSH OVC015
     FM251300 33012KT P6SM OVC018=

USA.gov is the U.S. government's official web portal to all federal, state and local government web resources and services.